createdAt,value
2018-08-06T00:00:23.757Z,3.60
2018-08-06T00:02:52.187Z,3.97
2018-08-06T00:05:20.612Z,3.93
2018-08-06T00:07:49.179Z,4.00
2018-08-06T00:10:19.124Z,3.60
2018-08-06T00:12:47.474Z,3.80
2018-08-06T00:15:16.144Z,3.83
2018-08-06T00:17:44.605Z,3.40
2018-08-06T00:20:13.947Z,3.60
2018-08-06T00:22:42.739Z,3.70
2018-08-06T00:25:12.452Z,3.93
2018-08-06T00:27:41.554Z,3.90
2018-08-06T00:30:11.643Z,3.63
2018-08-06T00:32:41.188Z,3.57
2018-08-06T00:35:10.153Z,3.73
2018-08-06T00:37:38.687Z,3.70
2018-08-06T00:40:10.057Z,4.10
2018-08-06T00:42:38.561Z,3.63
2018-08-06T00:45:08.752Z,4.00
2018-08-06T00:47:37.170Z,4.10
2018-08-06T00:50:05.887Z,3.90
2018-08-06T00:52:34.280Z,3.67
2018-08-06T00:55:02.586Z,4.27
2018-08-06T00:57:30.955Z,4.30
2018-08-06T00:59:59.295Z,4.63
2018-08-06T01:02:27.698Z,4.30
2018-08-06T01:04:56.090Z,4.20
2018-08-06T01:07:24.467Z,4.20
2018-08-06T01:09:52.866Z,4.43
2018-08-06T01:12:21.197Z,4.40
2018-08-06T01:14:49.626Z,4.27
2018-08-06T01:17:17.957Z,4.50
2018-08-06T01:19:46.357Z,4.40
2018-08-06T01:22:14.752Z,4.30
2018-08-06T01:24:43.148Z,4.67
2018-08-06T01:27:11.558Z,4.47
2018-08-06T01:29:39.970Z,4.60
2018-08-06T01:32:08.493Z,4.63
2018-08-06T01:34:36.859Z,4.37
2018-08-06T01:37:05.531Z,4.30
2018-08-06T01:39:33.948Z,4.27
2018-08-06T01:42:02.396Z,4.70
2018-08-06T01:44:30.766Z,4.73
2018-08-06T01:46:59.095Z,4.37
2018-08-06T01:49:28.496Z,4.90
2018-08-06T01:51:56.885Z,4.50
2018-08-06T01:54:25.239Z,4.50
2018-08-06T01:56:53.574Z,4.63
2018-08-06T01:59:21.922Z,4.93
2018-08-06T02:01:50.255Z,4.70
2018-08-06T02:04:18.611Z,5.27
2018-08-06T02:06:47.036Z,5.50
2018-08-06T02:09:15.576Z,5.00
2018-08-06T02:11:43.978Z,5.03
2018-08-06T02:14:12.308Z,5.00
2018-08-06T02:16:40.666Z,5.30
2018-08-06T02:19:09.020Z,4.93
2018-08-06T02:21:37.467Z,4.90
2018-08-06T02:24:05.920Z,5.27
2018-08-06T02:26:34.314Z,5.20
2018-08-06T02:29:02.674Z,5.27
2018-08-06T02:31:31.038Z,5.37
2018-08-06T02:33:59.377Z,5.10
2018-08-06T02:36:27.798Z,4.97
2018-08-06T02:38:56.137Z,5.20
2018-08-06T02:41:24.172Z,5.50
2018-08-06T02:43:52.512Z,5.07
2018-08-06T02:46:20.896Z,4.93
2018-08-06T02:48:49.281Z,5.20
2018-08-06T02:51:17.700Z,5.17
2018-08-06T02:53:46.118Z,5.40
2018-08-06T02:56:14.474Z,5.37
2018-08-06T02:58:42.868Z,5.53
2018-08-06T03:01:11.235Z,5.50
2018-08-06T03:03:39.585Z,5.50
2018-08-06T03:06:07.967Z,5.10
2018-08-06T03:08:36.406Z,5.17
2018-08-06T03:11:04.828Z,5.40
2018-08-06T03:13:33.244Z,5.50
2018-08-06T03:16:02.436Z,5.50
2018-08-06T03:18:30.862Z,5.10
2018-08-06T03:20:59.206Z,5.70
2018-08-06T03:23:27.561Z,5.57
2018-08-06T03:25:55.962Z,5.53
2018-08-06T03:28:24.326Z,5.47
2018-08-06T03:30:52.701Z,5.40
2018-08-06T03:33:21.062Z,5.53
2018-08-06T03:35:49.466Z,5.67
2018-08-06T03:38:17.872Z,5.70
2018-08-06T03:40:46.280Z,5.87
2018-08-06T03:43:14.640Z,6.10
2018-08-06T03:45:42.709Z,5.30
2018-08-06T03:48:11.156Z,6.00
2018-08-06T03:50:39.520Z,5.80
2018-08-06T03:53:07.904Z,5.97
2018-08-06T03:55:36.315Z,5.70
2018-08-06T03:58:04.750Z,5.93
2018-08-06T04:00:33.140Z,5.80
2018-08-06T04:03:02.322Z,6.60
2018-08-06T04:05:30.711Z,6.13
2018-08-06T04:07:59.068Z,5.83
2018-08-06T04:10:27.436Z,5.87
2018-08-06T04:12:55.766Z,5.97
2018-08-06T04:15:24.112Z,6.00
2018-08-06T04:17:52.472Z,5.80
2018-08-06T04:20:20.826Z,5.50
2018-08-06T04:22:49.197Z,5.43
2018-08-06T04:25:17.560Z,6.17
2018-08-06T04:27:45.888Z,6.00
2018-08-06T04:30:15.174Z,6.27
2018-08-06T04:32:44.605Z,6.50
2018-08-06T04:35:13.129Z,6.50
2018-08-06T04:37:41.943Z,6.43
2018-08-06T04:40:11.474Z,6.57
2018-08-06T04:42:40.159Z,6.60
2018-08-06T04:45:09.250Z,6.17
2018-08-06T04:47:38.061Z,6.20
2018-08-06T04:50:07.155Z,5.97
2018-08-06T04:52:35.236Z,6.80
2018-08-06T04:55:03.308Z,6.30
2018-08-06T04:57:31.652Z,5.90
2018-08-06T05:00:00.030Z,6.23
2018-08-06T05:02:28.382Z,6.87
2018-08-06T05:04:56.752Z,6.30
2018-08-06T05:07:27.157Z,6.23
2018-08-06T05:09:55.522Z,5.90
2018-08-06T05:12:23.560Z,6.27
2018-08-06T05:14:51.972Z,5.87
2018-08-06T05:17:20.372Z,6.00
2018-08-06T05:19:48.836Z,6.53
2018-08-06T05:22:17.202Z,6.07
2018-08-06T05:24:45.605Z,6.43
2018-08-06T05:27:14.013Z,6.37
2018-08-06T05:29:42.402Z,6.33
2018-08-06T05:32:10.828Z,6.20
2018-08-06T05:34:39.202Z,6.37
2018-08-06T05:37:07.562Z,6.30
2018-08-06T05:39:35.918Z,6.03
2018-08-06T05:42:04.344Z,5.93
2018-08-06T05:44:32.714Z,6.37
2018-08-06T05:47:01.052Z,6.60
2018-08-06T05:49:29.450Z,6.53
2018-08-06T05:51:57.835Z,6.47
2018-08-06T05:54:26.364Z,6.27
2018-08-06T05:56:54.738Z,6.23
2018-08-06T05:59:23.174Z,6.50
2018-08-06T06:01:51.658Z,6.33
2018-08-06T06:04:20.059Z,6.47
2018-08-06T06:06:48.499Z,6.47
2018-08-06T06:09:20.464Z,6.70
2018-08-06T06:11:49.826Z,6.23
2018-08-06T06:14:18.208Z,6.37
2018-08-06T06:16:47.667Z,6.47
2018-08-06T06:19:16.074Z,6.10
2018-08-06T06:21:44.442Z,6.50
2018-08-06T06:24:12.810Z,6.03
2018-08-06T06:26:41.188Z,6.40
2018-08-06T06:29:09.575Z,6.30
2018-08-06T06:31:37.987Z,5.90
2018-08-06T06:34:06.407Z,6.17
2018-08-06T06:36:34.766Z,6.17
2018-08-06T06:39:03.244Z,6.27
2018-08-06T06:41:31.360Z,6.10
2018-08-06T06:43:59.757Z,6.00
2018-08-06T06:46:28.108Z,6.07
2018-08-06T06:48:56.522Z,5.80
2018-08-06T06:51:24.982Z,6.07
2018-08-06T06:53:53.346Z,5.80
2018-08-06T06:56:21.718Z,5.37
2018-08-06T06:58:50.114Z,4.90
2018-08-06T07:01:18.474Z,5.47
2018-08-06T07:03:46.811Z,4.53
2018-08-06T07:06:15.227Z,4.27
2018-08-06T07:08:43.662Z,3.87
2018-08-06T07:11:12.071Z,4.27
2018-08-06T07:13:40.561Z,4.00
2018-08-06T07:16:09.281Z,4.47
2018-08-06T07:18:40.890Z,4.07
2018-08-06T07:21:09.306Z,4.20
2018-08-06T07:23:37.700Z,4.30
2018-08-06T07:26:06.284Z,4.10
2018-08-06T07:28:34.671Z,4.37
2018-08-06T07:31:03.108Z,3.57
2018-08-06T07:33:31.525Z,4.53
2018-08-06T07:36:00.089Z,4.07
2018-08-06T07:38:28.591Z,4.20
2018-08-06T07:40:56.707Z,3.70
2018-08-06T07:43:25.126Z,3.40
2018-08-06T07:45:53.541Z,3.70
2018-08-06T07:48:21.986Z,3.50
2018-08-06T07:50:50.477Z,3.20
2018-08-06T07:53:18.883Z,3.57
2018-08-06T07:55:47.293Z,3.33
2018-08-06T07:58:15.667Z,3.33
2018-08-06T08:00:45.289Z,3.57
2018-08-06T08:03:13.735Z,3.37
2018-08-06T08:05:42.147Z,3.60
2018-08-06T08:08:10.597Z,3.40
2018-08-06T08:10:39.140Z,3.10
2018-08-06T08:13:07.570Z,3.43
2018-08-06T08:15:36.090Z,3.43
2018-08-06T08:18:05.496Z,3.20
2018-08-06T08:20:35.312Z,3.50
2018-08-06T08:23:04.384Z,3.10
2018-08-06T08:25:32.872Z,3.00
2018-08-06T08:28:01.337Z,3.27
2018-08-06T08:30:29.785Z,3.40
2018-08-06T08:32:58.210Z,3.47
2018-08-06T08:35:30.312Z,3.20
2018-08-06T08:37:58.856Z,3.10
2018-08-06T08:40:27.354Z,3.23
2018-08-06T08:42:55.819Z,3.27
2018-08-06T08:45:24.541Z,3.30
2018-08-06T08:47:52.972Z,3.20
2018-08-06T08:50:21.444Z,3.20
2018-08-06T08:52:50.033Z,3.07
2018-08-06T08:55:19.517Z,3.80
2018-08-06T08:57:47.946Z,3.13
2018-08-06T09:00:17.833Z,3.10
2018-08-06T09:02:47.224Z,3.07
2018-08-06T09:05:16.324Z,3.17
2018-08-06T09:07:44.726Z,3.13
2018-08-06T09:10:14.330Z,2.90
2018-08-06T09:12:43.216Z,3.00
2018-08-06T09:15:23.270Z,3.27
2018-08-06T09:17:51.818Z,3.30
2018-08-06T09:20:20.466Z,3.20
2018-08-06T09:22:49.015Z,2.97
2018-08-06T09:25:17.500Z,3.00
2018-08-06T09:27:48.166Z,3.00
2018-08-06T09:30:19.907Z,2.90
2018-08-06T09:32:49.594Z,2.90
2018-08-06T09:35:18.712Z,3.00
2018-08-06T09:37:48.222Z,3.00
2018-08-06T09:40:17.785Z,2.93
2018-08-06T09:42:46.918Z,2.97
2018-08-06T09:45:16.413Z,3.20
2018-08-06T09:47:46.048Z,3.03
2018-08-06T09:50:15.231Z,3.03
2018-08-06T09:52:48.122Z,2.80
2018-08-06T09:55:21.919Z,3.00
2018-08-06T09:57:50.584Z,2.83
2018-08-06T10:00:25.430Z,3.00
2018-08-06T10:02:54.574Z,3.20
2018-08-06T10:05:23.995Z,3.00
2018-08-06T10:07:52.564Z,3.10
2018-08-06T10:10:21.214Z,3.30
2018-08-06T10:12:49.637Z,3.03
2018-08-06T10:15:18.587Z,2.80
2018-08-06T10:17:48.450Z,3.07
2018-08-06T10:20:18.227Z,3.03
2018-08-06T10:22:46.763Z,3.23
2018-08-06T10:25:15.795Z,3.03
2018-08-06T10:27:45.040Z,3.27
2018-08-06T10:30:15.637Z,3.63
2018-08-06T10:32:44.535Z,3.57
2018-08-06T10:35:14.030Z,3.50
2018-08-06T10:37:42.516Z,3.40
2018-08-06T10:40:14.643Z,3.43
2018-08-06T10:42:43.806Z,3.80
2018-08-06T10:45:13.757Z,4.20
2018-08-06T10:47:42.310Z,4.00
2018-08-06T10:50:10.938Z,3.70
2018-08-06T10:52:39.462Z,3.60
2018-08-06T10:55:08.924Z,3.60
2018-08-06T10:57:37.833Z,3.83
2018-08-06T11:00:19.866Z,4.23
2018-08-06T11:02:48.403Z,4.03
2018-08-06T11:05:17.393Z,4.33
2018-08-06T11:07:45.886Z,4.10
2018-08-06T11:10:17.746Z,4.20
2018-08-06T11:12:46.225Z,4.47
2018-08-06T11:15:16.966Z,4.60
2018-08-06T11:17:45.454Z,4.43
2018-08-06T11:20:14.943Z,4.77
2018-08-06T11:22:43.442Z,5.00
2018-08-06T11:25:13.370Z,4.37
2018-08-06T11:27:41.916Z,4.70
2018-08-06T11:30:12.564Z,4.50
2018-08-06T11:32:40.974Z,4.37
2018-08-06T11:35:10.239Z,4.50
2018-08-06T11:37:38.784Z,4.53
2018-08-06T11:40:08.412Z,5.10
2018-08-06T11:42:37.223Z,4.40
2018-08-06T11:45:05.900Z,4.53
2018-08-06T11:47:34.236Z,4.70
2018-08-06T11:50:02.700Z,4.53
2018-08-06T11:52:31.120Z,4.70
2018-08-06T11:54:59.506Z,4.80
2018-08-06T11:57:28.132Z,5.27
2018-08-06T11:59:56.618Z,4.80
2018-08-06T12:02:25.359Z,4.70
2018-08-06T12:04:53.770Z,5.00
2018-08-06T12:07:22.390Z,4.80
2018-08-06T12:09:50.758Z,4.83
2018-08-06T12:12:19.544Z,4.90
2018-08-06T12:14:47.927Z,4.80
2018-08-06T12:17:16.026Z,4.77
2018-08-06T12:19:44.433Z,4.83
2018-08-06T12:22:12.847Z,4.30
2018-08-06T12:24:41.309Z,4.83
2018-08-06T12:27:09.731Z,4.33
2018-08-06T12:29:37.836Z,4.77
2018-08-06T12:32:06.611Z,4.87
2018-08-06T12:34:35.052Z,4.70
2018-08-06T12:37:04.527Z,4.80
2018-08-06T12:39:32.906Z,5.03
2018-08-06T12:42:01.331Z,5.00
2018-08-06T12:44:29.452Z,4.50
2018-08-06T12:46:57.857Z,4.57
2018-08-06T12:49:26.247Z,4.70
2018-08-06T12:51:54.742Z,4.33
2018-08-06T12:54:23.166Z,4.57
2018-08-06T12:56:51.549Z,4.57
2018-08-06T12:59:20.008Z,4.60
2018-08-06T13:01:48.469Z,4.60
2018-08-06T13:04:16.955Z,4.70
2018-08-06T13:06:45.468Z,4.50
2018-08-06T13:09:13.959Z,5.00
2018-08-06T13:11:42.442Z,4.80
2018-08-06T13:14:12.053Z,4.80
2018-08-06T13:16:40.437Z,5.37
2018-08-06T13:19:08.785Z,4.87
2018-08-06T13:21:37.202Z,4.77
2018-08-06T13:24:05.617Z,4.57
2018-08-06T13:26:34.018Z,5.00
2018-08-06T13:29:02.403Z,4.90
2018-08-06T13:31:30.777Z,4.70
2018-08-06T13:33:59.202Z,5.00
2018-08-06T13:36:27.636Z,4.63
2018-08-06T13:38:59.043Z,4.60
2018-08-06T13:41:27.493Z,4.77
2018-08-06T13:43:55.912Z,4.80
2018-08-06T13:46:24.368Z,4.77
2018-08-06T13:48:52.775Z,4.60
2018-08-06T13:51:21.191Z,4.57
2018-08-06T13:53:49.731Z,4.70
2018-08-06T13:56:18.174Z,4.73
2018-08-06T13:58:46.349Z,4.80
2018-08-06T14:01:14.739Z,5.07
2018-08-06T14:03:45.162Z,4.80
2018-08-06T14:06:13.589Z,4.80
2018-08-06T14:08:41.999Z,4.57
2018-08-06T14:11:10.513Z,4.70
2018-08-06T14:13:38.922Z,4.80
2018-08-06T14:16:07.320Z,4.97
2018-08-06T14:18:35.751Z,4.97
2018-08-06T14:21:04.200Z,4.63
2018-08-06T14:23:32.571Z,4.77
2018-08-06T14:26:00.993Z,4.60
2018-08-06T14:28:29.378Z,4.87
2018-08-06T14:30:57.485Z,5.13
2018-08-06T14:33:25.917Z,4.60
2018-08-06T14:35:54.305Z,4.50
2018-08-06T14:38:22.718Z,4.30
2018-08-06T14:40:51.140Z,4.77
2018-08-06T14:43:19.480Z,4.70
2018-08-06T14:45:47.912Z,4.53
2018-08-06T14:48:16.338Z,4.17
2018-08-06T14:50:44.752Z,4.47
2018-08-06T14:53:13.148Z,4.70
2018-08-06T14:55:41.558Z,4.70
2018-08-06T14:58:09.966Z,4.40
2018-08-06T15:00:38.436Z,5.10
2018-08-06T15:03:06.851Z,4.63
2018-08-06T15:05:35.315Z,4.90
2018-08-06T15:08:03.832Z,4.33
2018-08-06T15:10:32.302Z,4.53
2018-08-06T15:13:00.721Z,4.80
2018-08-06T15:15:29.355Z,5.03
2018-08-06T15:17:57.847Z,5.27
2018-08-06T15:20:26.307Z,4.57
2018-08-06T15:22:54.715Z,5.00
2018-08-06T15:25:24.041Z,4.67
2018-08-06T15:27:52.677Z,4.70
2018-08-06T15:30:21.123Z,5.07
2018-08-06T15:32:49.578Z,4.70
2018-08-06T15:35:18.122Z,4.77
2018-08-06T15:37:46.607Z,5.17
2018-08-06T15:40:16.740Z,4.57
2018-08-06T15:42:45.215Z,4.80
2018-08-06T15:45:14.246Z,4.70
2018-08-06T15:47:43.691Z,4.33
2018-08-06T15:50:15.438Z,4.30
2018-08-06T15:52:43.617Z,4.60
2018-08-06T15:55:12.182Z,4.70
2018-08-06T15:57:40.627Z,4.40
2018-08-06T16:00:13.536Z,4.37
2018-08-06T16:02:42.001Z,4.47
2018-08-06T16:05:10.963Z,4.87
2018-08-06T16:07:39.585Z,4.70
2018-08-06T16:10:09.659Z,5.20
2018-08-06T16:12:38.131Z,5.03
2018-08-06T16:15:08.370Z,5.40
2018-08-06T16:17:37.150Z,4.80
2018-08-06T16:20:07.649Z,5.20
2018-08-06T16:22:39.946Z,5.07
2018-08-06T16:25:09.256Z,5.03
2018-08-06T16:27:37.597Z,4.80
2018-08-06T16:30:14.395Z,4.90
2018-08-06T16:32:43.398Z,4.80
2018-08-06T16:35:11.844Z,5.30
2018-08-06T16:37:40.277Z,5.10
2018-08-06T16:40:09.514Z,5.40
2018-08-06T16:42:37.942Z,5.17
2018-08-06T16:45:07.010Z,5.17
2018-08-06T16:47:36.649Z,5.60
2018-08-06T16:50:05.038Z,4.87
2018-08-06T16:52:33.579Z,5.03
2018-08-06T16:55:01.622Z,4.80
2018-08-06T16:57:30.050Z,5.07
2018-08-06T16:59:58.451Z,5.20
2018-08-06T17:02:27.345Z,5.10
2018-08-06T17:04:55.736Z,4.93
2018-08-06T17:07:24.092Z,5.37
2018-08-06T17:09:52.489Z,5.57
2018-08-06T17:12:20.901Z,5.00
2018-08-06T17:14:49.288Z,4.40
2018-08-06T17:17:17.853Z,4.27
2018-08-06T17:19:46.286Z,4.07
2018-08-06T17:22:14.717Z,4.77
2018-08-06T17:24:43.135Z,4.93
2018-08-06T17:27:11.599Z,4.70
2018-08-06T17:29:40.047Z,4.53
2018-08-06T17:32:08.485Z,5.17
2018-08-06T17:34:36.929Z,4.60
2018-08-06T17:37:05.471Z,4.50
2018-08-06T17:39:34.059Z,4.37
2018-08-06T17:42:02.547Z,4.40
2018-08-06T17:44:31.355Z,4.40
2018-08-06T17:47:05.866Z,5.03
2018-08-06T17:49:34.392Z,4.00
2018-08-06T17:52:02.826Z,4.33
2018-08-06T17:54:31.233Z,4.60
2018-08-06T17:56:59.903Z,4.30
2018-08-06T17:59:28.313Z,4.33
2018-08-06T18:01:56.703Z,4.53
2018-08-06T18:04:25.293Z,4.37
2018-08-06T18:06:53.659Z,4.10
2018-08-06T18:09:22.131Z,4.10
2018-08-06T18:11:50.605Z,3.93
2018-08-06T18:14:19.201Z,4.30
2018-08-06T18:16:47.777Z,4.30
2018-08-06T18:19:16.228Z,4.37
2018-08-06T18:21:44.731Z,4.40
2018-08-06T18:24:13.114Z,4.37
2018-08-06T18:26:41.453Z,4.33
2018-08-06T18:29:09.860Z,4.20
2018-08-06T18:31:38.153Z,4.30
2018-08-06T18:34:06.985Z,4.33
2018-08-06T18:36:35.489Z,4.20
2018-08-06T18:39:06.285Z,4.40
2018-08-06T18:41:34.692Z,4.30
2018-08-06T18:44:03.137Z,4.30
2018-08-06T18:46:32.117Z,4.53
2018-08-06T18:49:00.578Z,4.20
2018-08-06T18:51:28.760Z,4.40
2018-08-06T18:53:57.585Z,4.97
2018-08-06T18:56:26.417Z,4.63
2018-08-06T18:58:55.130Z,4.40
2018-08-06T19:01:23.805Z,4.20
2018-08-06T19:03:52.449Z,4.67
2018-08-06T19:06:21.587Z,4.60
2018-08-06T19:08:51.043Z,4.40
2018-08-06T19:11:19.544Z,4.13
2018-08-06T19:13:53.558Z,4.30
2018-08-06T19:16:22.263Z,4.70
2018-08-06T19:18:56.957Z,5.70
2018-08-06T19:21:26.183Z,4.63
2018-08-06T19:24:00.136Z,4.23
2018-08-06T19:26:28.757Z,4.53
2018-08-06T19:28:57.443Z,4.30
2018-08-06T19:31:26.737Z,4.30
2018-08-06T19:33:56.117Z,5.30
2018-08-06T19:36:24.732Z,4.43
2018-08-06T19:38:57.671Z,4.70
2018-08-06T19:41:26.437Z,4.77
2018-08-06T19:43:54.881Z,4.80
2018-08-06T19:46:23.560Z,5.30
2018-08-06T19:48:52.967Z,4.67
2018-08-06T19:51:21.583Z,4.63
2018-08-06T19:53:50.095Z,4.40
2018-08-06T19:56:18.638Z,4.83
2018-08-06T19:58:47.113Z,4.80
2018-08-06T20:01:15.529Z,4.67
2018-08-06T20:03:43.983Z,4.27
2018-08-06T20:06:15.923Z,4.50
2018-08-06T20:08:44.379Z,4.40
2018-08-06T20:11:12.836Z,4.63
2018-08-06T20:13:41.311Z,4.93
2018-08-06T20:16:09.839Z,4.60
2018-08-06T20:18:38.440Z,4.40
2018-08-06T20:21:06.951Z,4.73
2018-08-06T20:23:35.548Z,4.63
2018-08-06T20:26:03.993Z,4.47
2018-08-06T20:28:32.608Z,5.00
2018-08-06T20:31:01.076Z,4.43
2018-08-06T20:33:31.405Z,5.00
2018-08-06T20:35:59.814Z,4.73
2018-08-06T20:38:28.258Z,4.73
2018-08-06T20:40:56.726Z,4.50
2018-08-06T20:43:25.146Z,4.60
2018-08-06T20:45:53.655Z,4.30
2018-08-06T20:48:22.087Z,4.83
2018-08-06T20:50:50.545Z,5.07
2018-08-06T20:53:18.702Z,8.07
2018-08-06T20:55:47.135Z,4.90
2018-08-06T20:58:15.659Z,5.50
2018-08-06T21:00:44.242Z,5.07
2018-08-06T21:03:12.740Z,5.20
2018-08-06T21:05:40.904Z,5.10
2018-08-06T21:08:09.479Z,4.83
2018-08-06T21:10:37.959Z,4.80
2018-08-06T21:13:06.484Z,4.67
2018-08-06T21:15:34.950Z,4.90
2018-08-06T21:18:03.417Z,4.80
2018-08-06T21:20:35.639Z,4.57
2018-08-06T21:23:04.089Z,5.07
2018-08-06T21:25:32.480Z,4.80
2018-08-06T21:28:00.901Z,5.00
2018-08-06T21:30:29.425Z,5.20
2018-08-06T21:32:58.148Z,5.47
2018-08-06T21:35:27.868Z,5.23
2018-08-06T21:37:57.659Z,5.30
2018-08-06T21:40:26.580Z,4.93
2018-08-06T21:42:54.993Z,4.87
2018-08-06T21:45:23.710Z,4.90
2018-08-06T21:47:52.150Z,4.93
2018-08-06T21:50:20.648Z,5.03
2018-08-06T21:52:49.162Z,5.03
2018-08-06T21:55:17.614Z,4.93
2018-08-06T21:57:46.025Z,4.80
2018-08-06T22:00:17.458Z,5.00
2018-08-06T22:02:45.912Z,4.97
2018-08-06T22:05:14.425Z,4.93
2018-08-06T22:07:44.131Z,5.07
2018-08-06T22:10:12.263Z,5.30
2018-08-06T22:12:40.712Z,5.77
2018-08-06T22:15:10.167Z,5.30
2018-08-06T22:17:38.557Z,5.10
2018-08-06T22:20:07.026Z,5.53
2018-08-06T22:22:35.481Z,6.60
2018-08-06T22:25:03.916Z,5.13
2018-08-06T22:27:32.256Z,5.63
2018-08-06T22:30:00.601Z,5.50
2018-08-06T22:32:29.135Z,5.70
2018-08-06T22:34:57.672Z,5.50
2018-08-06T22:37:26.142Z,5.60
2018-08-06T22:39:54.610Z,5.70
2018-08-06T22:42:22.982Z,5.57
2018-08-06T22:44:51.416Z,5.70
2018-08-06T22:47:19.796Z,5.93
2018-08-06T22:49:48.172Z,5.70
2018-08-06T22:52:16.596Z,5.87
2018-08-06T22:54:45.041Z,6.63
2018-08-06T22:57:13.468Z,6.50
2018-08-06T22:59:41.863Z,6.13
2018-08-06T23:02:10.278Z,6.83
2018-08-06T23:04:38.734Z,6.43
2018-08-06T23:07:06.838Z,7.57
2018-08-06T23:09:35.241Z,8.67
2018-08-06T23:12:03.697Z,9.57
2018-08-06T23:14:32.122Z,9.93
2018-08-06T23:17:00.526Z,8.40
2018-08-06T23:19:28.958Z,9.03
2018-08-06T23:21:57.440Z,8.87
2018-08-06T23:24:25.841Z,8.60
2018-08-06T23:26:54.289Z,7.77
2018-08-06T23:29:22.705Z,8.17
2018-08-06T23:31:51.112Z,8.17
2018-08-06T23:34:19.526Z,7.73
2018-08-06T23:36:47.904Z,7.70
2018-08-06T23:39:16.359Z,7.93
2018-08-06T23:41:44.490Z,7.50
2018-08-06T23:44:12.944Z,7.40
2018-08-06T23:46:41.567Z,8.07
2018-08-06T23:49:10.033Z,8.20
2018-08-06T23:51:38.492Z,8.20
2018-08-06T23:54:06.895Z,7.70
2018-08-06T23:56:35.270Z,8.27
2018-08-06T23:59:03.984Z,7.97
